Time,TemperatureF,DewpointF,PressureIn,WindDirection,WindDirectionDegrees,WindSpeedMPH,WindSpeedGustMPH,Humidity,HourlyPrecipIn,Conditions,Clouds,dailyrainin,SolarRadiationWatts/m^2,SoftwareType,DateUTC
2014-01-04 00:02:00,-5.0,-14.0,-100.00,North,2,3.0,8.0,65,0.00,,,0.00,0.000000,,2014-01-04 05:02:00,
2014-01-04 00:12:00,-5.0,-14.0,-100.00,North,2,3.0,8.0,65,0.00,,,0.00,0.000000,,2014-01-04 05:12:00,
2014-01-04 00:22:00,-5.0,-14.0,-100.00,North,2,3.0,8.0,65,0.00,,,0.00,0.000000,,2014-01-04 05:22:00,
2014-01-04 00:53:00,-6.0,-14.0,-100.00,North,2,2.0,6.0,66,0.00,,,0.00,0.000000,,2014-01-04 05:53:00,
2014-01-04 01:03:00,-6.0,-14.0,-100.00,North,2,2.0,6.0,66,0.00,,,0.00,0.000000,,2014-01-04 06:03:00,
2014-01-04 01:12:00,-6.0,-14.0,-100.00,North,2,2.0,6.0,66,0.00,,,0.00,0.000000,,2014-01-04 06:12:00,
2014-01-04 01:22:00,-6.0,-14.0,-100.00,North,2,2.0,6.0,66,0.00,,,0.00,0.000000,,2014-01-04 06:22:00,
2014-01-04 01:53:00,-6.0,-15.0,-100.00,North,2,2.0,6.0,64,0.00,,,0.00,0.000000,,2014-01-04 06:53:00,
2014-01-04 02:02:00,-6.0,-15.0,-100.00,North,2,2.0,6.0,64,0.00,,,0.00,0.000000,,2014-01-04 07:02:00,
2014-01-04 02:12:00,-6.0,-15.0,-100.00,North,2,2.0,6.0,64,0.00,,,0.00,0.000000,,2014-01-04 07:12:00,
2014-01-04 02:22:00,-6.0,-15.0,-100.00,North,2,2.0,6.0,64,0.00,,,0.00,0.000000,,2014-01-04 07:22:00,
2014-01-04 02:52:00,-6.0,-15.0,-100.00,North,3,3.0,7.0,63,0.00,,,0.00,0.000000,,2014-01-04 07:52:00,
2014-01-04 03:02:00,-6.0,-15.0,-100.00,North,3,3.0,7.0,63,0.00,,,0.00,0.000000,,2014-01-04 08:02:00,
2014-01-04 03:11:00,-6.0,-15.0,-100.00,North,3,3.0,7.0,63,0.00,,,0.00,0.000000,,2014-01-04 08:11:00,
2014-01-04 03:22:00,-6.0,-15.0,-100.00,North,3,3.0,7.0,63,0.00,,,0.00,0.000000,,2014-01-04 08:22:00,
2014-01-04 03:52:00,-6.0,-15.0,-100.00,West,277,1.0,9.0,64,0.00,,,0.00,0.000000,,2014-01-04 08:52:00,
2014-01-04 04:02:00,-6.0,-15.0,-100.00,West,277,1.0,9.0,64,0.00,,,0.00,0.000000,,2014-01-04 09:02:00,
2014-01-04 04:12:00,-6.0,-15.0,-100.00,West,277,1.0,9.0,64,0.00,,,0.00,0.000000,,2014-01-04 09:12:00,
2014-01-04 04:22:00,-6.0,-15.0,-100.00,West,277,1.0,9.0,64,0.00,,,0.00,0.000000,,2014-01-04 09:22:00,
2014-01-04 04:54:00,-8.0,-16.0,-100.00,WSW,247,1.0,3.0,68,0.00,,,0.00,0.000000,,2014-01-04 09:54:00,
2014-01-04 05:03:00,-8.0,-16.0,-100.00,WSW,247,1.0,3.0,68,0.00,,,0.00,0.000000,,2014-01-04 10:03:00,
2014-01-04 05:12:00,-8.0,-16.0,-100.00,WSW,247,1.0,3.0,68,0.00,,,0.00,0.000000,,2014-01-04 10:12:00,
2014-01-04 05:23:00,-8.0,-16.0,-100.00,WSW,247,1.0,3.0,68,0.00,,,0.00,0.000000,,2014-01-04 10:23:00,
2014-01-04 05:53:00,-9.0,-16.0,-100.00,NW,325,2.0,3.0,69,0.00,,,0.00,0.000000,,2014-01-04 10:53:00,
2014-01-04 06:03:00,-9.0,-16.0,-100.00,NW,325,2.0,3.0,69,0.00,,,0.00,0.000000,,2014-01-04 11:03:00,
2014-01-04 06:12:00,-9.0,-16.0,-100.00,NW,325,2.0,3.0,69,0.00,,,0.00,0.000000,,2014-01-04 11:12:00,
2014-01-04 06:22:00,-9.0,-16.0,-100.00,NW,325,2.0,3.0,69,0.00,,,0.00,0.000000,,2014-01-04 11:22:00,
2014-01-04 06:53:00,-5.0,-13.0,-100.00,NW,307,2.0,4.0,67,0.00,,,0.00,0.000000,,2014-01-04 11:53:00,
2014-01-04 07:02:00,-5.0,-13.0,-100.00,NW,307,2.0,4.0,67,0.00,,,0.00,0.000000,,2014-01-04 12:02:00,
2014-01-04 07:12:00,-5.0,-13.0,-100.00,NW,307,2.0,4.0,67,0.00,,,0.00,0.000000,,2014-01-04 12:12:00,
2014-01-04 07:22:00,-5.0,-13.0,-100.00,NW,307,2.0,4.0,67,0.00,,,0.00,0.000000,,2014-01-04 12:22:00,
2014-01-04 07:52:00,-6.0,-14.0,-100.00,West,267,1.0,3.0,68,0.00,,,0.00,2.000000,,2014-01-04 12:52:00,
2014-01-04 08:02:00,-6.0,-14.0,-100.00,West,267,1.0,3.0,68,0.00,,,0.00,2.000000,,2014-01-04 13:02:00,
2014-01-04 08:11:00,-6.0,-14.0,-100.00,West,267,1.0,3.0,68,0.00,,,0.00,2.000000,,2014-01-04 13:11:00,
2014-01-04 08:22:00,-6.0,-14.0,-100.00,West,267,1.0,3.0,68,0.00,,,0.00,2.000000,,2014-01-04 13:22:00,
2014-01-04 08:52:00,0.0,-11.0,-100.00,West,264,3.0,6.0,59,0.00,,,0.00,44.000000,,2014-01-04 13:52:00,
2014-01-04 09:02:00,0.0,-11.0,-100.00,West,264,3.0,6.0,59,0.00,,,0.00,44.000000,,2014-01-04 14:02:00,
2014-01-04 09:11:00,0.0,-11.0,-100.00,West,264,3.0,6.0,59,0.00,,,0.00,44.000000,,2014-01-04 14:11:00,
2014-01-04 09:22:00,0.0,-11.0,-100.00,West,264,3.0,6.0,59,0.00,,,0.00,44.000000,,2014-01-04 14:22:00,
2014-01-04 09:53:00,7.0,-8.0,-100.00,West,263,5.0,9.0,49,0.00,,,0.00,182.000000,,2014-01-04 14:53:00,
2014-01-04 10:02:00,7.0,-8.0,-100.00,West,263,5.0,9.0,49,0.00,,,0.00,182.000000,,2014-01-04 15:02:00,
2014-01-04 10:12:00,7.0,-8.0,-100.00,West,263,5.0,9.0,49,0.00,,,0.00,182.000000,,2014-01-04 15:12:00,
2014-01-04 10:22:00,7.0,-8.0,-100.00,West,263,5.0,9.0,49,0.00,,,0.00,182.000000,,2014-01-04 15:22:00,
2014-01-04 11:13:00,17.0,-1.0,-100.00,WSW,258,3.0,10.0,45,0.00,,,0.00,331.000000,,2014-01-04 16:13:00,
2014-01-04 11:23:00,17.0,-1.0,-100.00,WSW,258,3.0,10.0,45,0.00,,,0.00,331.000000,,2014-01-04 16:23:00,
2014-01-04 11:53:00,19.0,-1.0,-100.00,SW,226,4.0,14.0,40,0.01,,,-99.99,390.000000,,2014-01-04 16:53:00,
2014-01-04 12:02:00,19.0,-1.0,-100.00,SW,226,4.0,14.0,40,0.01,,,-99.99,390.000000,,2014-01-04 17:02:00,
2014-01-04 12:12:00,19.0,-1.0,-100.00,SW,226,4.0,14.0,40,0.01,,,-99.99,390.000000,,2014-01-04 17:12:00,
2014-01-04 12:22:00,19.0,-1.0,-100.00,SW,226,4.0,14.0,40,0.01,,,-99.99,390.000000,,2014-01-04 17:22:00,
2014-01-04 12:52:00,20.0,-3.0,-100.00,WSW,244,7.0,15.0,35,0.02,,,0.03,415.000000,,2014-01-04 17:52:00,
2014-01-04 13:03:00,20.0,-3.0,-100.00,WSW,244,7.0,15.0,35,0.02,,,0.03,415.000000,,2014-01-04 18:03:00,
2014-01-04 13:12:00,20.0,-3.0,-100.00,WSW,244,7.0,15.0,35,0.02,,,0.03,415.000000,,2014-01-04 18:12:00,
2014-01-04 13:22:00,20.0,-3.0,-100.00,WSW,244,7.0,15.0,35,0.02,,,0.03,415.000000,,2014-01-04 18:22:00,
2014-01-04 13:53:00,22.0,-1.0,-100.00,WSW,240,4.0,16.0,35,0.00,,,0.03,354.000000,,2014-01-04 18:53:00,
2014-01-04 14:02:00,22.0,-1.0,-100.00,WSW,240,4.0,16.0,35,0.00,,,0.03,354.000000,,2014-01-04 19:02:00,
2014-01-04 14:11:00,22.0,-1.0,-100.00,WSW,240,4.0,16.0,35,0.00,,,0.03,354.000000,,2014-01-04 19:11:00,
2014-01-04 14:22:00,22.0,-1.0,-100.00,WSW,240,4.0,16.0,35,0.00,,,0.03,354.000000,,2014-01-04 19:22:00,
2014-01-04 14:25:00,22.0,-3.0,-100.00,SW,234,4.0,13.0,32,0.02,,,0.05,295.000000,,2014-01-04 19:25:00,
2014-01-04 14:52:00,22.0,-3.0,-100.00,SW,234,4.0,13.0,32,0.02,,,0.05,295.000000,,2014-01-04 19:52:00,
2014-01-04 15:02:00,22.0,-3.0,-100.00,SW,234,4.0,13.0,32,0.02,,,0.05,295.000000,,2014-01-04 20:02:00,
2014-01-04 15:11:00,22.0,-3.0,-100.00,SW,234,4.0,13.0,32,0.02,,,0.05,295.000000,,2014-01-04 20:11:00,
2014-01-04 15:53:00,20.0,-4.0,-100.00,SSW,202,4.0,12.0,34,0.00,,,0.05,104.000000,,2014-01-04 20:53:00,
2014-01-04 16:02:00,20.0,-4.0,-100.00,SSW,202,4.0,12.0,34,0.00,,,0.05,104.000000,,2014-01-04 21:02:00,
2014-01-04 16:12:00,20.0,-4.0,-100.00,SSW,202,4.0,12.0,34,0.00,,,0.05,104.000000,,2014-01-04 21:12:00,
2014-01-04 16:22:00,20.0,-4.0,-100.00,SSW,202,4.0,12.0,34,0.00,,,0.05,104.000000,,2014-01-04 21:22:00,
2014-01-04 16:53:00,20.0,-3.0,-100.00,WSW,239,1.0,8.0,36,0.00,,,0.05,21.000000,,2014-01-04 21:53:00,
2014-01-04 17:03:00,20.0,-3.0,-100.00,WSW,239,1.0,8.0,36,0.00,,,0.05,21.000000,,2014-01-04 22:03:00,
2014-01-04 17:13:00,20.0,-3.0,-100.00,WSW,239,1.0,8.0,36,0.00,,,0.05,21.000000,,2014-01-04 22:13:00,
2014-01-04 17:23:00,20.0,-3.0,-100.00,WSW,239,1.0,8.0,36,0.00,,,0.05,21.000000,,2014-01-04 22:23:00,
2014-01-04 17:53:00,17.0,-1.0,-100.00,North,357,1.0,4.0,44,0.00,,,0.05,1.000000,,2014-01-04 22:53:00,
2014-01-04 18:02:00,17.0,-1.0,-100.00,North,357,1.0,4.0,44,0.00,,,0.05,1.000000,,2014-01-04 23:02:00,
2014-01-04 18:12:00,17.0,-1.0,-100.00,North,357,1.0,4.0,44,0.00,,,0.05,1.000000,,2014-01-04 23:12:00,
2014-01-04 18:22:00,17.0,-1.0,-100.00,North,357,1.0,4.0,44,0.00,,,0.05,1.000000,,2014-01-04 23:22:00,
2014-01-04 18:53:00,18.0,2.0,-100.00,North,-999,0.0,5.0,48,0.00,,,0.05,0.000000,,2014-01-04 23:53:00,
2014-01-04 19:02:00,18.0,2.0,-100.00,North,-999,0.0,5.0,48,0.00,,,0.05,0.000000,,2014-01-05 00:02:00,
2014-01-04 19:11:00,18.0,2.0,-100.00,North,-999,0.0,5.0,48,0.00,,,0.05,0.000000,,2014-01-05 00:11:00,
2014-01-04 19:22:00,18.0,2.0,-100.00,North,-999,0.0,5.0,48,0.00,,,0.05,0.000000,,2014-01-05 00:22:00,
2014-01-04 19:52:00,19.0,4.0,-100.00,SSW,205,3.0,7.0,52,0.00,,,0.05,0.000000,,2014-01-05 00:52:00,
2014-01-04 20:02:00,19.0,4.0,-100.00,SSW,205,3.0,7.0,52,0.00,,,0.05,0.000000,,2014-01-05 01:02:00,
2014-01-04 20:11:00,19.0,4.0,-100.00,SSW,205,3.0,7.0,52,0.00,,,0.05,0.000000,,2014-01-05 01:11:00,
2014-01-04 20:22:00,19.0,4.0,-100.00,SSW,205,3.0,7.0,52,0.00,,,0.05,0.000000,,2014-01-05 01:22:00,
2014-01-04 20:52:00,19.0,6.0,-100.00,WSW,244,2.0,10.0,55,0.00,,,0.05,0.000000,,2014-01-05 01:52:00,
2014-01-04 21:01:00,19.0,6.0,-100.00,WSW,244,2.0,10.0,55,0.00,,,0.05,0.000000,,2014-01-05 02:01:00,
2014-01-04 21:11:00,19.0,6.0,-100.00,WSW,244,2.0,10.0,55,0.00,,,0.05,0.000000,,2014-01-05 02:11:00,
2014-01-04 21:22:00,19.0,6.0,-100.00,WSW,244,2.0,10.0,55,0.00,,,0.05,0.000000,,2014-01-05 02:22:00,
2014-01-04 21:52:00,17.0,7.0,-100.00,North,5,1.0,7.0,63,0.00,,,0.05,0.000000,,2014-01-05 02:52:00,
2014-01-04 22:02:00,17.0,7.0,-100.00,North,5,1.0,7.0,63,0.00,,,0.05,0.000000,,2014-01-05 03:02:00,
2014-01-04 22:12:00,17.0,7.0,-100.00,North,5,1.0,7.0,63,0.00,,,0.05,0.000000,,2014-01-05 03:12:00,
2014-01-04 22:22:00,17.0,7.0,-100.00,North,5,1.0,7.0,63,0.00,,,0.05,0.000000,,2014-01-05 03:22:00,
2014-01-04 22:53:00,17.0,6.0,-100.00,West,275,3.0,7.0,61,0.00,,,0.05,0.000000,,2014-01-05 03:53:00,
2014-01-04 23:03:00,-999.0,-99.9,-100.00,West,275,3.0,7.0,-999,0.00,,,-99.99,0.000000,,2014-01-05 04:03:00,
2014-01-04 23:13:00,17.0,6.0,-100.00,West,275,3.0,7.0,61,0.00,,,0.05,0.000000,,2014-01-05 04:13:00,
2014-01-04 23:23:00,17.0,6.0,-100.00,West,275,3.0,7.0,61,0.00,,,0.05,0.000000,,2014-01-05 04:23:00,
2014-01-04 23:53:00,18.0,5.0,-100.00,West,266,5.0,10.0,56,0.00,,,0.05,0.000000,,2014-01-05 04:53:00,